sensor_id;sensor_type;location;lat;lon;timestamp;P1;durP1;ratioP1;P2;durP2;ratioP2
71566;SDS011;59403;47.456;19.120;2023-07-28T00:02:04;5.47;;;2.37;;
71566;SDS011;59403;47.456;19.120;2023-07-28T00:04:31;4.45;;;2.40;;
71566;SDS011;59403;47.456;19.120;2023-07-28T00:07:00;3.05;;;2.17;;
71566;SDS011;59403;47.456;19.120;2023-07-28T00:09:27;2.95;;;2.15;;
71566;SDS011;59403;47.456;19.120;2023-07-28T00:11:56;3.53;;;2.20;;
71566;SDS011;59403;47.456;19.120;2023-07-28T00:14:24;3.97;;;1.92;;
71566;SDS011;59403;47.456;19.120;2023-07-28T00:16:51;5.47;;;2.05;;
71566;SDS011;59403;47.456;19.120;2023-07-28T00:19:18;2.85;;;2.33;;
71566;SDS011;59403;47.456;19.120;2023-07-28T00:21:46;3.65;;;2.22;;
71566;SDS011;59403;47.456;19.120;2023-07-28T00:24:13;3.13;;;2.20;;
71566;SDS011;59403;47.456;19.120;2023-07-28T00:26:40;3.53;;;2.53;;
71566;SDS011;59403;47.456;19.120;2023-07-28T00:29:08;4.30;;;2.20;;
71566;SDS011;59403;47.456;19.120;2023-07-28T00:31:35;3.72;;;2.22;;
71566;SDS011;59403;47.456;19.120;2023-07-28T00:34:02;3.72;;;2.37;;
71566;SDS011;59403;47.456;19.120;2023-07-28T00:36:30;3.00;;;2.07;;
71566;SDS011;59403;47.456;19.120;2023-07-28T00:38:57;5.20;;;2.40;;
71566;SDS011;59403;47.456;19.120;2023-07-28T00:41:24;4.25;;;2.30;;
71566;SDS011;59403;47.456;19.120;2023-07-28T00:43:51;4.95;;;2.55;;
71566;SDS011;59403;47.456;19.120;2023-07-28T00:46:19;3.80;;;2.50;;
71566;SDS011;59403;47.456;19.120;2023-07-28T00:48:46;5.43;;;2.63;;
71566;SDS011;59403;47.456;19.120;2023-07-28T00:51:13;3.40;;;2.33;;
71566;SDS011;59403;47.456;19.120;2023-07-28T00:53:40;3.15;;;2.33;;
71566;SDS011;59403;47.456;19.120;2023-07-28T00:56:07;4.40;;;2.00;;
71566;SDS011;59403;47.456;19.120;2023-07-28T00:58:34;4.65;;;2.45;;
71566;SDS011;59403;47.456;19.120;2023-07-28T01:01:01;4.43;;;2.13;;
71566;SDS011;59403;47.456;19.120;2023-07-28T01:03:30;5.10;;;2.47;;
71566;SDS011;59403;47.456;19.120;2023-07-28T01:05:58;4.50;;;2.65;;
71566;SDS011;59403;47.456;19.120;2023-07-28T01:08:37;3.65;;;2.10;;
71566;SDS011;59403;47.456;19.120;2023-07-28T01:11:08;3.95;;;2.25;;
71566;SDS011;59403;47.456;19.120;2023-07-28T01:13:35;4.47;;;2.80;;
71566;SDS011;59403;47.456;19.120;2023-07-28T01:16:02;4.07;;;2.62;;
71566;SDS011;59403;47.456;19.120;2023-07-28T01:18:30;3.85;;;2.50;;
71566;SDS011;59403;47.456;19.120;2023-07-28T01:20:57;4.10;;;2.37;;
71566;SDS011;59403;47.456;19.120;2023-07-28T01:23:42;3.28;;;2.60;;
71566;SDS011;59403;47.456;19.120;2023-07-28T01:26:25;4.23;;;2.80;;
71566;SDS011;59403;47.456;19.120;2023-07-28T01:28:55;4.22;;;2.72;;
71566;SDS011;59403;47.456;19.120;2023-07-28T01:31:22;4.28;;;2.70;;
71566;SDS011;59403;47.456;19.120;2023-07-28T01:33:49;4.47;;;2.40;;
71566;SDS011;59403;47.456;19.120;2023-07-28T01:36:16;4.53;;;2.30;;
71566;SDS011;59403;47.456;19.120;2023-07-28T01:38:43;4.23;;;2.90;;
71566;SDS011;59403;47.456;19.120;2023-07-28T01:41:10;7.40;;;2.85;;
71566;SDS011;59403;47.456;19.120;2023-07-28T01:43:38;4.55;;;2.83;;
71566;SDS011;59403;47.456;19.120;2023-07-28T01:46:05;5.82;;;2.60;;
71566;SDS011;59403;47.456;19.120;2023-07-28T01:48:32;6.28;;;3.05;;
71566;SDS011;59403;47.456;19.120;2023-07-28T01:50:58;4.60;;;2.97;;
71566;SDS011;59403;47.456;19.120;2023-07-28T01:53:25;4.00;;;3.40;;
71566;SDS011;59403;47.456;19.120;2023-07-28T01:55:52;69.75;;;10.32;;
71566;SDS011;59403;47.456;19.120;2023-07-28T01:58:19;72.32;;;10.90;;
71566;SDS011;59403;47.456;19.120;2023-07-28T02:00:47;105.05;;;14.13;;
71566;SDS011;59403;47.456;19.120;2023-07-28T02:03:14;75.40;;;11.40;;
71566;SDS011;59403;47.456;19.120;2023-07-28T02:05:41;54.45;;;8.57;;
71566;SDS011;59403;47.456;19.120;2023-07-28T02:08:09;66.28;;;9.30;;
71566;SDS011;59403;47.456;19.120;2023-07-28T02:10:36;13.20;;;3.60;;
71566;SDS011;59403;47.456;19.120;2023-07-28T02:13:11;63.45;;;10.13;;
71566;SDS011;59403;47.456;19.120;2023-07-28T02:15:38;64.77;;;9.73;;
71566;SDS011;59403;47.456;19.120;2023-07-28T02:18:06;48.45;;;7.72;;
71566;SDS011;59403;47.456;19.120;2023-07-28T02:20:33;50.72;;;8.18;;
71566;SDS011;59403;47.456;19.120;2023-07-28T02:23:00;64.15;;;10.25;;
71566;SDS011;59403;47.456;19.120;2023-07-28T02:25:29;10.60;;;3.58;;
71566;SDS011;59403;47.456;19.120;2023-07-28T02:28:08;4.53;;;2.47;;
71566;SDS011;59403;47.456;19.120;2023-07-28T02:30:36;4.22;;;2.47;;
71566;SDS011;59403;47.456;19.120;2023-07-28T02:33:03;5.10;;;3.05;;
71566;SDS011;59403;47.456;19.120;2023-07-28T02:35:32;4.22;;;2.85;;
71566;SDS011;59403;47.456;19.120;2023-07-28T02:38:00;4.18;;;2.53;;
71566;SDS011;59403;47.456;19.120;2023-07-28T02:40:26;5.70;;;2.70;;
71566;SDS011;59403;47.456;19.120;2023-07-28T02:42:53;5.57;;;2.62;;
71566;SDS011;59403;47.456;19.120;2023-07-28T02:45:23;6.55;;;2.42;;
71566;SDS011;59403;47.456;19.120;2023-07-28T02:47:50;4.70;;;2.58;;
71566;SDS011;59403;47.456;19.120;2023-07-28T02:50:17;4.85;;;2.92;;
71566;SDS011;59403;47.456;19.120;2023-07-28T02:52:45;3.97;;;2.70;;
71566;SDS011;59403;47.456;19.120;2023-07-28T02:55:12;4.87;;;2.90;;
71566;SDS011;59403;47.456;19.120;2023-07-28T02:57:39;4.93;;;3.08;;
71566;SDS011;59403;47.456;19.120;2023-07-28T03:00:06;4.28;;;3.10;;
71566;SDS011;59403;47.456;19.120;2023-07-28T03:02:35;7.25;;;3.60;;
71566;SDS011;59403;47.456;19.120;2023-07-28T03:05:02;6.03;;;3.80;;
71566;SDS011;59403;47.456;19.120;2023-07-28T03:07:30;6.37;;;3.10;;
71566;SDS011;59403;47.456;19.120;2023-07-28T03:09:58;5.45;;;3.47;;
71566;SDS011;59403;47.456;19.120;2023-07-28T03:12:25;4.62;;;2.85;;
71566;SDS011;59403;47.456;19.120;2023-07-28T03:14:52;4.47;;;2.62;;
71566;SDS011;59403;47.456;19.120;2023-07-28T03:17:19;5.83;;;3.10;;
71566;SDS011;59403;47.456;19.120;2023-07-28T03:19:46;6.37;;;3.28;;
71566;SDS011;59403;47.456;19.120;2023-07-28T03:22:13;6.35;;;3.20;;
71566;SDS011;59403;47.456;19.120;2023-07-28T03:24:39;4.97;;;2.97;;
71566;SDS011;59403;47.456;19.120;2023-07-28T03:27:09;4.50;;;3.37;;
71566;SDS011;59403;47.456;19.120;2023-07-28T03:29:36;5.27;;;3.03;;
71566;SDS011;59403;47.456;19.120;2023-07-28T03:32:03;5.60;;;2.78;;
71566;SDS011;59403;47.456;19.120;2023-07-28T03:34:30;7.20;;;3.17;;
71566;SDS011;59403;47.456;19.120;2023-07-28T03:36:57;5.32;;;3.25;;
71566;SDS011;59403;47.456;19.120;2023-07-28T03:39:24;4.57;;;3.00;;
71566;SDS011;59403;47.456;19.120;2023-07-28T03:41:50;4.20;;;2.50;;
71566;SDS011;59403;47.456;19.120;2023-07-28T03:44:19;7.03;;;2.70;;
71566;SDS011;59403;47.456;19.120;2023-07-28T03:46:46;4.45;;;2.80;;
71566;SDS011;59403;47.456;19.120;2023-07-28T03:49:12;5.32;;;3.05;;
71566;SDS011;59403;47.456;19.120;2023-07-28T03:51:39;4.50;;;2.90;;
71566;SDS011;59403;47.456;19.120;2023-07-28T03:54:06;5.23;;;2.53;;
71566;SDS011;59403;47.456;19.120;2023-07-28T03:56:33;4.87;;;3.25;;
71566;SDS011;59403;47.456;19.120;2023-07-28T03:59:00;5.68;;;3.40;;
71566;SDS011;59403;47.456;19.120;2023-07-28T04:01:28;5.25;;;3.10;;
71566;SDS011;59403;47.456;19.120;2023-07-28T04:03:55;4.37;;;3.33;;
71566;SDS011;59403;47.456;19.120;2023-07-28T04:09:07;5.43;;;2.80;;
71566;SDS011;59403;47.456;19.120;2023-07-28T04:11:34;5.07;;;2.87;;
71566;SDS011;59403;47.456;19.120;2023-07-28T04:14:01;5.15;;;3.10;;
71566;SDS011;59403;47.456;19.120;2023-07-28T04:16:29;5.25;;;3.05;;
71566;SDS011;59403;47.456;19.120;2023-07-28T04:18:56;7.63;;;3.17;;
71566;SDS011;59403;47.456;19.120;2023-07-28T04:21:23;5.82;;;2.92;;
71566;SDS011;59403;47.456;19.120;2023-07-28T04:23:50;6.18;;;3.20;;
71566;SDS011;59403;47.456;19.120;2023-07-28T04:26:17;4.37;;;3.10;;
71566;SDS011;59403;47.456;19.120;2023-07-28T04:28:44;5.22;;;3.05;;
71566;SDS011;59403;47.456;19.120;2023-07-28T04:31:11;4.53;;;2.70;;
71566;SDS011;59403;47.456;19.120;2023-07-28T04:33:40;5.57;;;3.08;;
71566;SDS011;59403;47.456;19.120;2023-07-28T04:36:08;6.00;;;3.22;;
71566;SDS011;59403;47.456;19.120;2023-07-28T04:38:35;4.10;;;2.67;;
71566;SDS011;59403;47.456;19.120;2023-07-28T04:41:01;6.87;;;2.95;;
71566;SDS011;59403;47.456;19.120;2023-07-28T04:43:28;7.07;;;3.10;;
71566;SDS011;59403;47.456;19.120;2023-07-28T04:45:55;5.75;;;3.12;;
71566;SDS011;59403;47.456;19.120;2023-07-28T04:48:22;6.00;;;3.10;;
71566;SDS011;59403;47.456;19.120;2023-07-28T04:50:50;6.78;;;3.00;;
71566;SDS011;59403;47.456;19.120;2023-07-28T04:53:17;5.30;;;2.87;;
71566;SDS011;59403;47.456;19.120;2023-07-28T04:55:44;5.30;;;3.17;;
71566;SDS011;59403;47.456;19.120;2023-07-28T04:58:11;4.85;;;3.08;;
71566;SDS011;59403;47.456;19.120;2023-07-28T05:00:38;6.40;;;3.15;;
71566;SDS011;59403;47.456;19.120;2023-07-28T05:03:05;6.45;;;3.33;;
71566;SDS011;59403;47.456;19.120;2023-07-28T05:05:31;4.90;;;3.42;;
71566;SDS011;59403;47.456;19.120;2023-07-28T05:08:00;5.57;;;3.03;;
71566;SDS011;59403;47.456;19.120;2023-07-28T05:10:27;6.85;;;2.80;;
71566;SDS011;59403;47.456;19.120;2023-07-28T05:12:53;6.05;;;3.05;;
71566;SDS011;59403;47.456;19.120;2023-07-28T05:15:21;5.43;;;3.53;;
71566;SDS011;59403;47.456;19.120;2023-07-28T05:17:48;6.00;;;3.40;;
71566;SDS011;59403;47.456;19.120;2023-07-28T05:20:15;5.47;;;2.83;;
71566;SDS011;59403;47.456;19.120;2023-07-28T05:22:42;6.25;;;3.30;;
71566;SDS011;59403;47.456;19.120;2023-07-28T05:25:11;6.90;;;3.78;;
71566;SDS011;59403;47.456;19.120;2023-07-28T05:27:38;7.97;;;3.17;;
71566;SDS011;59403;47.456;19.120;2023-07-28T05:30:05;5.45;;;3.10;;
71566;SDS011;59403;47.456;19.120;2023-07-28T05:32:33;5.87;;;3.13;;
71566;SDS011;59403;47.456;19.120;2023-07-28T05:35:00;10.77;;;4.10;;
71566;SDS011;59403;47.456;19.120;2023-07-28T05:37:27;8.13;;;3.60;;
71566;SDS011;59403;47.456;19.120;2023-07-28T05:39:54;5.75;;;2.92;;
71566;SDS011;59403;47.456;19.120;2023-07-28T05:42:23;6.97;;;3.75;;
71566;SDS011;59403;47.456;19.120;2023-07-28T05:44:50;5.97;;;3.07;;
71566;SDS011;59403;47.456;19.120;2023-07-28T05:47:18;4.72;;;3.05;;
71566;SDS011;59403;47.456;19.120;2023-07-28T05:49:45;5.90;;;3.10;;
71566;SDS011;59403;47.456;19.120;2023-07-28T05:52:12;7.53;;;2.95;;
71566;SDS011;59403;47.456;19.120;2023-07-28T05:54:39;6.15;;;3.05;;
71566;SDS011;59403;47.456;19.120;2023-07-28T05:57:06;6.13;;;2.93;;
71566;SDS011;59403;47.456;19.120;2023-07-28T05:59:34;6.20;;;3.55;;
71566;SDS011;59403;47.456;19.120;2023-07-28T06:02:01;8.15;;;2.92;;
71566;SDS011;59403;47.456;19.120;2023-07-28T06:04:28;11.05;;;3.20;;
71566;SDS011;59403;47.456;19.120;2023-07-28T06:06:55;6.62;;;3.40;;
71566;SDS011;59403;47.456;19.120;2023-07-28T06:09:22;4.93;;;2.80;;
71566;SDS011;59403;47.456;19.120;2023-07-28T06:11:49;5.22;;;2.97;;
71566;SDS011;59403;47.456;19.120;2023-07-28T06:14:16;7.40;;;2.92;;
71566;SDS011;59403;47.456;19.120;2023-07-28T06:16:44;7.43;;;3.20;;
71566;SDS011;59403;47.456;19.120;2023-07-28T06:19:11;5.30;;;2.87;;
71566;SDS011;59403;47.456;19.120;2023-07-28T06:21:37;7.03;;;3.30;;
71566;SDS011;59403;47.456;19.120;2023-07-28T06:24:04;6.15;;;2.60;;
71566;SDS011;59403;47.456;19.120;2023-07-28T06:26:32;7.00;;;3.42;;
71566;SDS011;59403;47.456;19.120;2023-07-28T06:28:58;6.68;;;3.22;;
71566;SDS011;59403;47.456;19.120;2023-07-28T06:31:25;6.68;;;3.28;;
71566;SDS011;59403;47.456;19.120;2023-07-28T06:33:53;5.00;;;2.87;;
71566;SDS011;59403;47.456;19.120;2023-07-28T06:36:20;7.05;;;2.50;;
71566;SDS011;59403;47.456;19.120;2023-07-28T06:38:47;5.93;;;3.05;;
71566;SDS011;59403;47.456;19.120;2023-07-28T06:41:15;8.38;;;2.80;;
71566;SDS011;59403;47.456;19.120;2023-07-28T06:43:42;5.28;;;2.80;;
71566;SDS011;59403;47.456;19.120;2023-07-28T06:46:09;6.07;;;2.70;;
71566;SDS011;59403;47.456;19.120;2023-07-28T06:48:35;4.68;;;2.50;;
71566;SDS011;59403;47.456;19.120;2023-07-28T06:51:04;4.45;;;2.50;;
71566;SDS011;59403;47.456;19.120;2023-07-28T06:53:31;6.37;;;2.25;;
71566;SDS011;59403;47.456;19.120;2023-07-28T06:55:59;2.95;;;2.00;;
71566;SDS011;59403;47.456;19.120;2023-07-28T06:58:26;2.60;;;1.47;;
71566;SDS011;59403;47.456;19.120;2023-07-28T07:00:53;2.90;;;2.00;;
71566;SDS011;59403;47.456;19.120;2023-07-28T07:03:21;2.87;;;1.83;;
71566;SDS011;59403;47.456;19.120;2023-07-28T07:05:48;3.42;;;2.08;;
71566;SDS011;59403;47.456;19.120;2023-07-28T07:08:16;14.68;;;3.08;;
71566;SDS011;59403;47.456;19.120;2023-07-28T07:10:46;2.57;;;1.73;;
71566;SDS011;59403;47.456;19.120;2023-07-28T07:13:14;4.22;;;2.53;;
71566;SDS011;59403;47.456;19.120;2023-07-28T07:15:40;2.85;;;2.22;;
71566;SDS011;59403;47.456;19.120;2023-07-28T07:18:08;5.32;;;2.00;;
71566;SDS011;59403;47.456;19.120;2023-07-28T07:20:34;6.55;;;1.98;;
71566;SDS011;59403;47.456;19.120;2023-07-28T07:23:03;3.67;;;1.70;;
71566;SDS011;59403;47.456;19.120;2023-07-28T07:25:31;3.40;;;1.73;;
71566;SDS011;59403;47.456;19.120;2023-07-28T07:27:58;2.37;;;1.73;;
71566;SDS011;59403;47.456;19.120;2023-07-28T07:30:25;3.28;;;1.80;;
71566;SDS011;59403;47.456;19.120;2023-07-28T07:32:52;5.05;;;2.00;;
71566;SDS011;59403;47.456;19.120;2023-07-28T07:35:19;5.00;;;2.20;;
71566;SDS011;59403;47.456;19.120;2023-07-28T07:37:46;4.65;;;2.00;;
71566;SDS011;59403;47.456;19.120;2023-07-28T07:40:12;3.28;;;2.05;;
71566;SDS011;59403;47.456;19.120;2023-07-28T07:42:41;3.25;;;1.90;;
71566;SDS011;59403;47.456;19.120;2023-07-28T07:45:10;4.60;;;2.60;;
71566;SDS011;59403;47.456;19.120;2023-07-28T07:47:37;3.53;;;2.33;;
71566;SDS011;59403;47.456;19.120;2023-07-28T07:50:05;4.05;;;1.98;;
71566;SDS011;59403;47.456;19.120;2023-07-28T07:52:34;3.28;;;2.33;;
71566;SDS011;59403;47.456;19.120;2023-07-28T07:55:01;3.35;;;1.92;;
71566;SDS011;59403;47.456;19.120;2023-07-28T07:57:28;3.60;;;2.00;;
71566;SDS011;59403;47.456;19.120;2023-07-28T07:59:57;4.00;;;1.70;;
71566;SDS011;59403;47.456;19.120;2023-07-28T08:02:23;2.83;;;1.98;;
71566;SDS011;59403;47.456;19.120;2023-07-28T08:04:51;2.40;;;2.12;;
71566;SDS011;59403;47.456;19.120;2023-07-28T08:07:19;3.40;;;2.10;;
71566;SDS011;59403;47.456;19.120;2023-07-28T08:09:46;3.10;;;2.45;;
71566;SDS011;59403;47.456;19.120;2023-07-28T08:12:13;7.20;;;1.90;;
71566;SDS011;59403;47.456;19.120;2023-07-28T08:14:41;3.53;;;2.10;;
71566;SDS011;59403;47.456;19.120;2023-07-28T08:17:10;3.75;;;2.30;;
71566;SDS011;59403;47.456;19.120;2023-07-28T08:19:37;4.00;;;2.12;;
71566;SDS011;59403;47.456;19.120;2023-07-28T08:22:04;4.68;;;2.50;;
71566;SDS011;59403;47.456;19.120;2023-07-28T08:24:31;3.80;;;1.90;;
71566;SDS011;59403;47.456;19.120;2023-07-28T08:26:58;3.78;;;1.80;;
71566;SDS011;59403;47.456;19.120;2023-07-28T08:29:25;3.25;;;2.10;;
71566;SDS011;59403;47.456;19.120;2023-07-28T08:31:52;2.20;;;1.60;;
71566;SDS011;59403;47.456;19.120;2023-07-28T08:34:20;3.28;;;1.90;;
71566;SDS011;59403;47.456;19.120;2023-07-28T08:36:47;4.10;;;1.90;;
71566;SDS011;59403;47.456;19.120;2023-07-28T08:39:14;5.90;;;1.77;;
71566;SDS011;59403;47.456;19.120;2023-07-28T08:41:41;2.65;;;2.20;;
71566;SDS011;59403;47.456;19.120;2023-07-28T08:44:08;4.40;;;2.00;;
71566;SDS011;59403;47.456;19.120;2023-07-28T08:46:35;4.37;;;2.08;;
71566;SDS011;59403;47.456;19.120;2023-07-28T08:49:02;6.00;;;2.10;;
71566;SDS011;59403;47.456;19.120;2023-07-28T08:51:30;4.12;;;1.92;;
71566;SDS011;59403;47.456;19.120;2023-07-28T08:53:57;4.45;;;2.20;;
71566;SDS011;59403;47.456;19.120;2023-07-28T08:56:24;2.22;;;1.67;;
71566;SDS011;59403;47.456;19.120;2023-07-28T08:58:56;3.25;;;2.10;;
71566;SDS011;59403;47.456;19.120;2023-07-28T09:01:24;4.60;;;1.80;;
71566;SDS011;59403;47.456;19.120;2023-07-28T09:03:51;2.95;;;1.85;;
71566;SDS011;59403;47.456;19.120;2023-07-28T09:06:19;2.85;;;1.70;;
71566;SDS011;59403;47.456;19.120;2023-07-28T09:08:56;2.85;;;1.60;;
71566;SDS011;59403;47.456;19.120;2023-07-28T09:11:24;4.95;;;1.92;;
71566;SDS011;59403;47.456;19.120;2023-07-28T09:13:53;5.90;;;2.00;;
71566;SDS011;59403;47.456;19.120;2023-07-28T09:16:20;3.47;;;1.77;;
71566;SDS011;59403;47.456;19.120;2023-07-28T09:18:49;2.70;;;2.03;;
71566;SDS011;59403;47.456;19.120;2023-07-28T09:21:16;4.55;;;2.10;;
71566;SDS011;59403;47.456;19.120;2023-07-28T09:23:46;2.85;;;2.00;;
71566;SDS011;59403;47.456;19.120;2023-07-28T09:26:15;2.93;;;1.70;;
71566;SDS011;59403;47.456;19.120;2023-07-28T09:28:43;2.92;;;1.50;;
71566;SDS011;59403;47.456;19.120;2023-07-28T09:31:10;3.35;;;1.92;;
71566;SDS011;59403;47.456;19.120;2023-07-28T09:33:37;2.50;;;1.80;;
71566;SDS011;59403;47.456;19.120;2023-07-28T09:36:08;3.97;;;1.92;;
71566;SDS011;59403;47.456;19.120;2023-07-28T09:38:36;3.87;;;2.40;;
71566;SDS011;59403;47.456;19.120;2023-07-28T09:41:05;3.90;;;1.48;;
71566;SDS011;59403;47.456;19.120;2023-07-28T09:43:37;4.32;;;1.83;;
71566;SDS011;59403;47.456;19.120;2023-07-28T09:46:06;4.82;;;1.67;;
71566;SDS011;59403;47.456;19.120;2023-07-28T09:48:34;3.92;;;2.50;;
71566;SDS011;59403;47.456;19.120;2023-07-28T09:51:06;4.20;;;2.50;;
71566;SDS011;59403;47.456;19.120;2023-07-28T09:53:40;2.92;;;2.10;;
71566;SDS011;59403;47.456;19.120;2023-07-28T09:56:12;5.37;;;2.10;;
71566;SDS011;59403;47.456;19.120;2023-07-28T09:58:44;4.05;;;1.77;;
71566;SDS011;59403;47.456;19.120;2023-07-28T10:01:17;3.22;;;2.00;;
71566;SDS011;59403;47.456;19.120;2023-07-28T10:03:45;3.20;;;2.00;;
71566;SDS011;59403;47.456;19.120;2023-07-28T10:06:13;3.58;;;2.22;;
71566;SDS011;59403;47.456;19.120;2023-07-28T10:08:41;3.65;;;2.30;;
71566;SDS011;59403;47.456;19.120;2023-07-28T10:11:09;3.05;;;2.20;;
71566;SDS011;59403;47.456;19.120;2023-07-28T10:13:43;2.87;;;2.12;;
71566;SDS011;59403;47.456;19.120;2023-07-28T10:16:12;5.07;;;1.90;;
71566;SDS011;59403;47.456;19.120;2023-07-28T10:18:40;2.72;;;1.85;;
71566;SDS011;59403;47.456;19.120;2023-07-28T10:21:08;5.70;;;2.10;;
71566;SDS011;59403;47.456;19.120;2023-07-28T10:23:38;3.42;;;1.98;;
71566;SDS011;59403;47.456;19.120;2023-07-28T10:26:05;6.20;;;1.90;;
71566;SDS011;59403;47.456;19.120;2023-07-28T10:28:34;5.77;;;2.10;;
71566;SDS011;59403;47.456;19.120;2023-07-28T10:31:05;5.00;;;2.28;;
71566;SDS011;59403;47.456;19.120;2023-07-28T10:33:33;5.30;;;2.58;;
71566;SDS011;59403;47.456;19.120;2023-07-28T10:36:12;2.40;;;1.87;;
71566;SDS011;59403;47.456;19.120;2023-07-28T10:38:40;3.37;;;2.35;;
71566;SDS011;59403;47.456;19.120;2023-07-28T10:41:10;3.93;;;2.13;;
71566;SDS011;59403;47.456;19.120;2023-07-28T10:43:38;4.68;;;2.20;;
71566;SDS011;59403;47.456;19.120;2023-07-28T10:46:08;10.48;;;2.53;;
71566;SDS011;59403;47.456;19.120;2023-07-28T10:48:37;5.22;;;2.33;;
71566;SDS011;59403;47.456;19.120;2023-07-28T10:51:08;3.20;;;2.50;;
71566;SDS011;59403;47.456;19.120;2023-07-28T10:53:36;2.40;;;1.73;;
71566;SDS011;59403;47.456;19.120;2023-07-28T10:56:03;3.25;;;2.20;;
71566;SDS011;59403;47.456;19.120;2023-07-28T10:58:34;2.65;;;2.00;;
71566;SDS011;59403;47.456;19.120;2023-07-28T11:01:01;3.78;;;2.33;;
71566;SDS011;59403;47.456;19.120;2023-07-28T11:03:30;4.05;;;2.42;;
71566;SDS011;59403;47.456;19.120;2023-07-28T11:05:57;3.30;;;2.70;;
71566;SDS011;59403;47.456;19.120;2023-07-28T11:08:24;3.55;;;2.00;;
71566;SDS011;59403;47.456;19.120;2023-07-28T11:10:51;7.00;;;2.60;;
71566;SDS011;59403;47.456;19.120;2023-07-28T11:13:18;4.05;;;2.28;;
71566;SDS011;59403;47.456;19.120;2023-07-28T11:15:46;7.35;;;3.15;;
71566;SDS011;59403;47.456;19.120;2023-07-28T11:18:14;5.13;;;2.17;;
71566;SDS011;59403;47.456;19.120;2023-07-28T11:20:43;3.58;;;2.47;;
71566;SDS011;59403;47.456;19.120;2023-07-28T11:23:13;7.55;;;2.60;;
71566;SDS011;59403;47.456;19.120;2023-07-28T11:25:41;3.97;;;2.20;;
71566;SDS011;59403;47.456;19.120;2023-07-28T11:28:09;4.75;;;2.78;;
71566;SDS011;59403;47.456;19.120;2023-07-28T11:30:36;6.90;;;1.97;;
71566;SDS011;59403;47.456;19.120;2023-07-28T11:33:04;4.45;;;2.10;;
71566;SDS011;59403;47.456;19.120;2023-07-28T11:35:37;3.62;;;2.20;;
71566;SDS011;59403;47.456;19.120;2023-07-28T11:38:05;2.97;;;1.92;;
71566;SDS011;59403;47.456;19.120;2023-07-28T11:40:34;4.47;;;2.30;;
71566;SDS011;59403;47.456;19.120;2023-07-28T11:43:02;4.00;;;2.20;;
71566;SDS011;59403;47.456;19.120;2023-07-28T11:45:29;3.40;;;2.60;;
71566;SDS011;59403;47.456;19.120;2023-07-28T11:47:57;4.20;;;2.22;;
71566;SDS011;59403;47.456;19.120;2023-07-28T11:50:25;3.50;;;2.35;;
71566;SDS011;59403;47.456;19.120;2023-07-28T11:52:51;5.50;;;2.55;;
71566;SDS011;59403;47.456;19.120;2023-07-28T11:55:20;4.63;;;1.83;;
71566;SDS011;59403;47.456;19.120;2023-07-28T11:57:47;3.97;;;2.10;;
71566;SDS011;59403;47.456;19.120;2023-07-28T12:00:15;2.97;;;2.25;;
71566;SDS011;59403;47.456;19.120;2023-07-28T12:02:43;3.28;;;2.08;;
71566;SDS011;59403;47.456;19.120;2023-07-28T12:05:13;6.53;;;2.28;;
71566;SDS011;59403;47.456;19.120;2023-07-28T12:07:41;4.07;;;1.93;;
71566;SDS011;59403;47.456;19.120;2023-07-28T12:10:13;4.97;;;2.08;;
71566;SDS011;59403;47.456;19.120;2023-07-28T12:12:43;4.07;;;2.45;;
71566;SDS011;59403;47.456;19.120;2023-07-28T12:15:21;2.35;;;1.90;;
71566;SDS011;59403;47.456;19.120;2023-07-28T12:18:05;2.87;;;2.40;;
71566;SDS011;59403;47.456;19.120;2023-07-28T12:20:35;7.50;;;2.60;;
71566;SDS011;59403;47.456;19.120;2023-07-28T12:23:03;8.23;;;2.08;;
71566;SDS011;59403;47.456;19.120;2023-07-28T12:25:30;4.95;;;2.30;;
71566;SDS011;59403;47.456;19.120;2023-07-28T12:27:59;3.47;;;2.00;;
71566;SDS011;59403;47.456;19.120;2023-07-28T12:30:26;6.25;;;2.50;;
71566;SDS011;59403;47.456;19.120;2023-07-28T12:32:53;4.43;;;2.17;;
71566;SDS011;59403;47.456;19.120;2023-07-28T12:35:19;10.02;;;2.25;;
71566;SDS011;59403;47.456;19.120;2023-07-28T12:37:48;2.95;;;1.90;;
71566;SDS011;59403;47.456;19.120;2023-07-28T12:40:15;3.58;;;2.00;;
71566;SDS011;59403;47.456;19.120;2023-07-28T12:42:44;3.42;;;2.22;;
71566;SDS011;59403;47.456;19.120;2023-07-28T12:45:14;2.53;;;2.27;;
71566;SDS011;59403;47.456;19.120;2023-07-28T12:47:41;4.45;;;2.33;;
71566;SDS011;59403;47.456;19.120;2023-07-28T12:50:08;2.70;;;2.45;;
71566;SDS011;59403;47.456;19.120;2023-07-28T12:52:36;4.35;;;2.15;;
71566;SDS011;59403;47.456;19.120;2023-07-28T12:55:03;6.30;;;2.25;;
71566;SDS011;59403;47.456;19.120;2023-07-28T12:57:30;3.37;;;2.43;;
71566;SDS011;59403;47.456;19.120;2023-07-28T12:59:57;3.12;;;1.83;;
71566;SDS011;59403;47.456;19.120;2023-07-28T13:02:26;4.25;;;2.12;;
71566;SDS011;59403;47.456;19.120;2023-07-28T13:04:53;3.60;;;2.03;;
71566;SDS011;59403;47.456;19.120;2023-07-28T13:07:20;4.53;;;2.05;;
71566;SDS011;59403;47.456;19.120;2023-07-28T13:09:48;2.43;;;1.80;;
71566;SDS011;59403;47.456;19.120;2023-07-28T13:12:15;3.35;;;2.12;;
71566;SDS011;59403;47.456;19.120;2023-07-28T13:14:42;2.70;;;2.25;;
71566;SDS011;59403;47.456;19.120;2023-07-28T13:17:09;4.82;;;2.28;;
71566;SDS011;59403;47.456;19.120;2023-07-28T13:19:38;4.47;;;2.00;;
71566;SDS011;59403;47.456;19.120;2023-07-28T13:22:05;3.40;;;1.67;;
71566;SDS011;59403;47.456;19.120;2023-07-28T13:24:34;4.40;;;2.00;;
71566;SDS011;59403;47.456;19.120;2023-07-28T13:27:01;2.70;;;1.90;;
71566;SDS011;59403;47.456;19.120;2023-07-28T13:29:28;4.07;;;2.05;;
71566;SDS011;59403;47.456;19.120;2023-07-28T13:31:57;4.45;;;2.62;;
71566;SDS011;59403;47.456;19.120;2023-07-28T13:34:29;6.33;;;1.97;;
71566;SDS011;59403;47.456;19.120;2023-07-28T13:36:58;3.25;;;1.80;;
71566;SDS011;59403;47.456;19.120;2023-07-28T13:39:25;2.90;;;2.40;;
71566;SDS011;59403;47.456;19.120;2023-07-28T13:41:51;27.95;;;3.55;;
71566;SDS011;59403;47.456;19.120;2023-07-28T13:44:18;3.22;;;2.60;;
71566;SDS011;59403;47.456;19.120;2023-07-28T13:46:45;5.33;;;1.90;;
71566;SDS011;59403;47.456;19.120;2023-07-28T13:49:13;4.60;;;2.10;;
71566;SDS011;59403;47.456;19.120;2023-07-28T13:51:39;2.97;;;2.30;;
71566;SDS011;59403;47.456;19.120;2023-07-28T13:54:09;5.78;;;2.65;;
71566;SDS011;59403;47.456;19.120;2023-07-28T13:56:36;3.28;;;1.95;;
71566;SDS011;59403;47.456;19.120;2023-07-28T13:59:03;5.07;;;2.50;;
71566;SDS011;59403;47.456;19.120;2023-07-28T14:01:31;4.65;;;2.10;;
71566;SDS011;59403;47.456;19.120;2023-07-28T14:03:58;3.20;;;2.47;;
71566;SDS011;59403;47.456;19.120;2023-07-28T14:06:25;3.58;;;1.67;;
71566;SDS011;59403;47.456;19.120;2023-07-28T14:08:52;3.72;;;2.20;;
71566;SDS011;59403;47.456;19.120;2023-07-28T14:11:20;6.07;;;2.60;;
71566;SDS011;59403;47.456;19.120;2023-07-28T14:13:47;3.95;;;2.47;;
71566;SDS011;59403;47.456;19.120;2023-07-28T14:16:14;6.00;;;2.50;;
71566;SDS011;59403;47.456;19.120;2023-07-28T14:18:41;2.87;;;2.00;;
71566;SDS011;59403;47.456;19.120;2023-07-28T14:21:08;3.65;;;2.10;;
71566;SDS011;59403;47.456;19.120;2023-07-28T14:23:35;3.20;;;2.10;;
71566;SDS011;59403;47.456;19.120;2023-07-28T14:26:02;3.78;;;2.08;;
71566;SDS011;59403;47.456;19.120;2023-07-28T14:28:30;4.05;;;2.67;;
71566;SDS011;59403;47.456;19.120;2023-07-28T14:30:57;3.12;;;1.90;;
71566;SDS011;59403;47.456;19.120;2023-07-28T14:33:30;3.62;;;2.10;;
71566;SDS011;59403;47.456;19.120;2023-07-28T14:35:56;2.43;;;2.00;;
71566;SDS011;59403;47.456;19.120;2023-07-28T14:38:23;3.17;;;2.25;;
71566;SDS011;59403;47.456;19.120;2023-07-28T14:40:52;4.72;;;2.60;;